Flight Track Log - Related Links

Times and Time Zones

All times are in EDT time to prevent confusion due to time zone crossing. See the QXE2079 flight status page for this flight to view local times or setup timezone preferences in your user account.


Time Position Orientation Groundspeed Altitude Reporting Facility
EDT Latitude Longitude Course Direction KTS MPH feet Rate Location/Type
Fri 05:17:00 PM 46.1977 -118.8218 286° West  Level FlightAware Approximate
Fri 05:18:00 PM 46.2208 -118.9299 287° West  Level FlightAware Approximate
Fri 05:19:00 PM 46.2439 -119.0380 287° West  Level FlightAware Approximate
Fri 05:20:00 PM 46.2618 -119.1468 290° West  Level FlightAware Approximate
Fri 05:21:00 PM 46.2885 -119.2533 290° West  Level FlightAware Approximate
Fri 05:22:00 PM 46.3151 -119.3598 290° West  Level FlightAware Approximate
Fri 05:23:00 PM 46.3363 -119.4680 284° West  Level FlightAware Approximate
Fri 05:24:00 PM 46.3568 -119.5773 290° West  Level FlightAware Approximate
Fri 05:25:00 PM 46.3835 -119.6840 294° West  Level FlightAware Approximate
Fri 05:26:00 PM 46.4148 -119.7880 294° West  Level FlightAware Approximate
Fri 05:27:00 PM 46.4408 -119.8947 284° West  Level FlightAware Approximate
Fri 05:28:00 PM 46.4630 -120.0034 290° West  Level FlightAware Approximate
Fri 05:29:00 PM 46.4891 -120.1106 289° West  Level FlightAware Approximate
Fri 05:30:00 PM 46.5150 -120.2179 289° West  Level FlightAware Approximate
Fri 05:31:00 PM 46.5408 -120.3253 289° West  Level FlightAware Approximate
Fri 05:32:00 PM 46.5666 -120.4329 289° West  Level FlightAware Approximate
Fri 05:33:00 PM 46.6040 -120.5329 299° West  Level FlightAware Approximate
Fri 05:34:00 PM 46.6522 -120.6217 302° West  Level FlightAware Approximate
Fri 05:35:00 PM 46.6937 -120.7186 302° West  Level FlightAware Approximate
Fri 05:36:00 PM 46.7369 -120.8138 302° West  Level FlightAware Approximate
Fri 05:37:00 PM 46.7797 -120.9094 306° West  Level FlightAware Approximate
Fri 05:38:00 PM 46.8259 -121.0018 306° West  Level FlightAware Approximate
Fri 05:39:00 PM 46.8705 -121.0959 303° West  Level FlightAware Approximate
Fri 05:40:00 PM 46.9133 -121.1920 303° West  Level FlightAware Approximate
Fri 05:41:00 PM 46.9566 -121.2876 302° West  Level FlightAware Approximate
Fri 05:42:00 PM 47.0062 -121.3640 303° West  Level FlightAware Approximate
Fri 05:43:00 PM 47.0490 -121.4602 303° West  Level FlightAware Approximate
Fri 05:44:00 PM 47.0825 -121.5634 290° West  Level FlightAware Approximate
Fri 05:45:00 PM 47.1322 -121.6521 310° West  Level FlightAware Approximate
Fri 05:46:00 PM 47.1733 -121.7466 306° West  Level FlightAware Approximate
Fri 05:47:00 PM 47.2233 -121.8333 301° West  Level FlightAware Approximate
Fri 05:48:00 PM 47.2631 -121.9327 301° West  Level FlightAware Approximate
Fri 05:49:00 PM 47.3005 -122.0340 315° West  Level FlightAware Approximate
Fri 05:50:00 PM 47.3472 -122.1250 296° West  Level FlightAware Approximate
Fri 05:51:00 PM 47.3928 -122.2189 306° West  Level FlightAware Approximate
Fri 05:52:00 PM 47.4333 -122.3000 306° West  Level FlightAware Approximate
Fri 05:53:00 PM 47.4499 -122.3118 306° West  Level Estimated
Fri 05:54:00 PM 47.4499 -122.3118 306° West  Level Estimated
Fri 05:55:00 PM 47.4499 -122.3118 306° West  Level Estimated
Fri 05:56:00 PM 47.4499 -122.3118 306° West  Level Estimated
Fri 05:57:00 PM 47.4499 -122.3118 306° West  Level Estimated
Fri 05:58:00 PM 47.4499 -122.3118 306° West  Level Estimated
Fri 05:59:00 PM 47.4499 -122.3118 306° West  Level Estimated
Fri 06:00:00 PM 47.4499 -122.3118 306° West  Level Estimated
Fri 06:01:00 PM 47.4499 -122.3118 306° West  Level Estimated
Fri 06:02:00 PM 47.4499 -122.3118 306° West  Level Estimated
Fri 06:03:00 PM 47.4499 -122.3118 306° West  Level Estimated
Fri 06:04:00 PM 47.4499 -122.3118 306° West  Level Estimated
Fri 06:05:00 PM 47.4499 -122.3118 306° West  Level Estimated
Fri 06:06:00 PM 47.4499 -122.3118 306° West  Level Estimated
Fri 06:07:00 PM 47.4499 -122.3118 306° West  Level Estimated

Login

Don't have an account? Register now (free) for customized features, flight alerts, and more!